Time;durP1;ratioP1;P1;durP2;ratioP2;P2;SDS_P1;SDS_P2;PMS_P1;PMS_P2;Temp;Humidity;BMP_temperature;BMP_pressure;BME280_temperature;BME280_humidity;BME280_pressure;Samples;Min_cycle;Max_cycle;Signal;HPM_P1;HPM_P2
2021/12/19 00:01:36;;;;;;;16.55;7.95;;;2.60;99.90;;;;;;5018207;28;20037;-69
2021/12/19 00:09:40;;;;;;;14.90;7.07;;;2.60;99.90;;;;;;5028317;28;20057;-69
2021/12/19 00:12:08;;;;;;;14.98;6.47;;;2.60;99.90;;;;;;5027987;28;20049;-70
2021/12/19 00:14:35;;;;;;;14.15;6.30;;;2.50;99.90;;;;;;5018150;28;20049;-70
2021/12/19 00:17:03;;;;;;;15.30;6.60;;;2.60;99.90;;;;;;5027787;28;20062;-69
2021/12/19 00:19:30;;;;;;;10.27;5.22;;;2.50;99.90;;;;;;5027994;28;20056;-70
2021/12/19 00:21:58;;;;;;;12.68;5.80;;;2.50;99.90;;;;;;5027695;28;20061;-69
2021/12/19 00:24:29;;;;;;;11.90;5.35;;;2.50;99.90;;;;;;5011125;28;20261;-69
2021/12/19 00:26:56;;;;;;;11.55;5.18;;;2.50;99.90;;;;;;5044032;28;20449;-70
2021/12/19 00:29:25;;;;;;;14.88;6.10;;;2.50;99.90;;;;;;5024318;28;20095;-69
2021/12/19 00:31:52;;;;;;;13.25;6.32;;;2.50;99.90;;;;;;5024681;28;20057;-70
2021/12/19 00:34:19;;;;;;;15.15;7.20;;;2.50;99.90;;;;;;5011034;28;20071;-69
2021/12/19 00:36:46;;;;;;;15.30;5.75;;;2.50;99.90;;;;;;5027105;28;20049;-70
2021/12/19 00:39:14;;;;;;;16.63;6.88;;;2.50;99.90;;;;;;5027638;28;20049;-70
2021/12/19 00:41:41;;;;;;;13.05;6.03;;;2.50;99.90;;;;;;5027122;28;20614;-70
2021/12/19 00:44:11;;;;;;;13.15;6.20;;;2.40;99.90;;;;;;5018760;28;20400;-70
2021/12/19 00:46:49;;;;;;;15.60;7.03;;;2.40;99.90;;;;;;5029869;28;20525;-69
2021/12/19 00:49:22;;;;;;;15.85;6.95;;;2.50;99.90;;;;;;5029476;28;20142;-69
2021/12/19 00:51:50;;;;;;;;;;;2.50;99.90;;;;;;5029982;28;20415;-70
2021/12/19 00:54:17;;;;;;;14.05;6.70;;;2.50;99.90;;;;;;5028431;28;20394;-70
2021/12/19 00:56:46;;;;;;;13.18;6.13;;;2.50;99.90;;;;;;5016653;28;20099;-70
2021/12/19 00:59:13;;;;;;;14.45;6.30;;;2.60;99.90;;;;;;5027697;28;20112;-69
2021/12/19 01:01:44;;;;;;;14.27;6.65;;;2.50;99.90;;;;;;5021635;28;20141;-69
2021/12/19 01:04:14;;;;;;;17.58;7.20;;;2.50;99.90;;;;;;5013106;28;20467;-69
2021/12/19 01:06:44;;;;;;;22.02;9.32;;;2.50;99.90;;;;;;5052739;28;20409;-69
2021/12/19 01:09:12;;;;;;;16.30;8.20;;;2.60;99.90;;;;;;5018336;28;20500;-69
2021/12/19 01:11:39;;;;;;;15.98;7.40;;;2.50;99.90;;;;;;5008447;28;20104;-69
2021/12/19 01:14:08;;;;;;;15.60;7.03;;;2.60;99.90;;;;;;5022262;28;20046;-68
2021/12/19 01:16:35;;;;;;;17.77;8.30;;;2.60;99.90;;;;;;5021911;28;20053;-68
2021/12/19 01:19:03;;;;;;;15.65;6.95;;;2.60;99.90;;;;;;5029147;28;20048;-70
2021/12/19 01:21:30;;;;;;;17.08;8.15;;;2.60;99.90;;;;;;5029118;28;20053;-69
2021/12/19 01:23:57;;;;;;;16.63;7.72;;;2.60;99.90;;;;;;5029100;28;20038;-69
2021/12/19 01:26:25;;;;;;;15.70;7.75;;;2.60;99.90;;;;;;5028435;28;20140;-69
2021/12/19 01:28:52;;;;;;;15.00;7.00;;;2.60;99.90;;;;;;5028947;28;20046;-69
2021/12/19 01:31:20;;;;;;;14.75;7.03;;;2.60;99.90;;;;;;5027618;28;20049;-69
2021/12/19 01:33:47;;;;;;;14.48;6.75;;;2.60;99.90;;;;;;5029152;28;20530;-70
2021/12/19 01:36:15;;;;;;;14.13;6.80;;;2.60;99.90;;;;;;5028735;28;20036;-69
2021/12/19 01:38:42;;;;;;;15.50;7.65;;;2.60;99.90;;;;;;5029176;28;20045;-68
2021/12/19 01:41:09;;;;;;;13.38;6.55;;;2.60;99.90;;;;;;5023941;28;20051;-69
2021/12/19 01:43:37;;;;;;;13.40;6.55;;;2.60;99.90;;;;;;5029332;28;20045;-70
2021/12/19 01:46:04;;;;;;;13.95;6.45;;;2.70;99.90;;;;;;5028896;28;20053;-69
2021/12/19 01:48:32;;;;;;;13.98;6.70;;;2.70;99.90;;;;;;5028854;28;20040;-69
2021/12/19 01:50:59;;;;;;;16.75;7.35;;;2.70;99.90;;;;;;5027881;28;20042;-70
2021/12/19 01:53:28;;;;;;;14.32;6.85;;;2.80;99.90;;;;;;5029797;28;20037;-70
2021/12/19 01:55:56;;;;;;;14.07;6.88;;;2.80;99.90;;;;;;5029118;28;20060;-70
2021/12/19 01:58:24;;;;;;;13.85;7.32;;;2.80;99.90;;;;;;5029938;28;20049;-70
2021/12/19 02:00:55;;;;;;;15.95;7.10;;;2.80;99.90;;;;;;5028708;28;20412;-70
2021/12/19 02:03:23;;;;;;;14.30;6.57;;;2.80;99.90;;;;;;5023796;28;20053;-70
2021/12/19 02:05:50;;;;;;;14.77;6.72;;;2.80;99.90;;;;;;5019334;28;20037;-69
2021/12/19 02:08:18;;;;;;;13.32;6.60;;;2.80;99.90;;;;;;5029555;28;20081;-70
2021/12/19 02:10:46;;;;;;;15.60;7.20;;;2.80;99.90;;;;;;5018818;28;20046;-70
2021/12/19 02:13:16;;;;;;;15.85;6.63;;;2.80;99.90;;;;;;5024904;28;20481;-70
2021/12/19 02:15:45;;;;;;;12.65;6.60;;;2.80;99.90;;;;;;5035080;28;20053;-70
2021/12/19 02:18:16;;;;;;;13.80;6.55;;;2.90;99.90;;;;;;5035324;28;20060;-69
2021/12/19 02:20:53;;;;;;;13.07;6.93;;;2.90;99.90;;;;;;5035216;28;20045;-70
2021/12/19 02:23:24;;;;;;;12.57;6.32;;;2.90;99.90;;;;;;5035524;28;20049;-70
2021/12/19 02:25:53;;;;;;;14.70;6.82;;;2.90;99.90;;;;;;5029763;28;20046;-70
2021/12/19 02:28:22;;;;;;;13.45;6.55;;;2.90;99.90;;;;;;5035202;28;20225;-70
2021/12/19 02:30:50;;;;;;;12.70;6.43;;;2.90;99.90;;;;;;5035028;28;20091;-70
2021/12/19 02:33:22;;;;;;;13.77;6.95;;;2.90;99.90;;;;;;5035462;28;20538;-69
2021/12/19 02:36:03;;;;;;;13.00;5.97;;;3.00;99.90;;;;;;5033802;28;20132;-70
2021/12/19 02:49:33;;;;;;;11.85;5.68;;;3.10;99.90;;;;;;5032918;28;20059;-70
2021/12/19 02:52:03;;;;;;;13.30;5.63;;;3.10;99.90;;;;;;5025202;28;20045;-70
2021/12/19 02:54:30;;;;;;;9.48;5.00;;;3.10;99.90;;;;;;5066877;28;20072;-70
2021/12/19 02:56:58;;;;;;;10.85;5.35;;;3.10;99.90;;;;;;5019786;28;20050;-70
2021/12/19 02:59:26;;;;;;;11.32;5.47;;;3.10;99.90;;;;;;5029260;28;20042;-70
2021/12/19 03:01:53;;;;;;;11.15;5.53;;;3.10;99.90;;;;;;5028540;28;20052;-70
2021/12/19 03:04:22;;;;;;;10.63;5.55;;;3.10;99.90;;;;;;5015030;28;20056;-71
2021/12/19 03:06:50;;;;;;;12.23;5.45;;;3.10;99.90;;;;;;5024245;28;20073;-70
2021/12/19 03:09:42;;;;;;;10.07;5.35;;;3.10;99.90;;;;;;5013591;28;20564;-70
2021/12/19 03:12:23;;;;;;;11.77;5.22;;;3.10;99.90;;;;;;5025746;28;20057;-70
2021/12/19 03:20:22;;;;;;;10.75;5.50;;;3.10;99.90;;;;;;5030359;28;20499;-70
2021/12/19 03:22:49;;;;;;;9.45;5.13;;;3.10;99.90;;;;;;5029262;28;20046;-70
2021/12/19 03:25:17;;;;;;;11.20;5.45;;;3.10;99.90;;;;;;5030574;28;20042;-68
2021/12/19 03:27:44;;;;;;;11.30;5.88;;;3.10;99.90;;;;;;5030020;28;20041;-68
2021/12/19 03:30:12;;;;;;;10.48;5.25;;;3.00;99.90;;;;;;5030051;28;20092;-71
2021/12/19 03:32:39;;;;;;;9.80;5.32;;;3.00;99.90;;;;;;5030796;28;20041;-69
2021/12/19 03:35:07;;;;;;;11.25;5.85;;;3.10;99.90;;;;;;5062491;28;20046;-69
2021/12/19 03:37:40;;;;;;;10.73;5.65;;;3.10;99.90;;;;;;5030248;28;20045;-69
2021/12/19 03:40:11;;;;;;;11.68;5.45;;;3.00;99.90;;;;;;5030731;28;20045;-69
2021/12/19 03:42:47;;;;;;;13.30;6.45;;;3.00;99.90;;;;;;5029328;28;20045;-68
2021/12/19 03:45:18;;;;;;;11.10;5.57;;;3.00;99.90;;;;;;5029886;28;20041;-68
2021/12/19 03:47:46;;;;;;;13.52;6.10;;;3.00;99.90;;;;;;5029921;28;20042;-68
2021/12/19 03:50:19;;;;;;;12.73;6.53;;;3.10;99.90;;;;;;5029875;28;20103;-69
2021/12/19 03:52:48;;;;;;;11.93;6.03;;;3.10;99.90;;;;;;5029786;28;20342;-68
2021/12/19 03:55:15;;;;;;;13.65;6.57;;;3.10;99.90;;;;;;5028720;28;20049;-68
2021/12/19 03:57:42;;;;;;;12.77;6.18;;;3.00;99.90;;;;;;5029334;28;20042;-69
2021/12/19 04:00:13;;;;;;;14.90;6.53;;;3.00;99.90;;;;;;5024725;28;20049;-69
2021/12/19 04:02:40;;;;;;;15.55;6.57;;;3.10;99.90;;;;;;5030909;28;20049;-69
2021/12/19 04:05:08;;;;;;;14.07;7.00;;;3.10;99.90;;;;;;5030517;28;20048;-69
2021/12/19 04:07:35;;;;;;;13.70;6.70;;;3.10;99.90;;;;;;5030526;28;20052;-69
2021/12/19 04:10:03;;;;;;;13.13;6.20;;;3.10;99.90;;;;;;5029639;28;20049;-69
2021/12/19 04:12:31;;;;;;;14.23;6.85;;;3.10;99.90;;;;;;5030830;28;20037;-69
2021/12/19 04:14:58;;;;;;;14.43;7.10;;;3.00;99.90;;;;;;5026665;28;20045;-70
2021/12/19 04:17:26;;;;;;;14.95;7.03;;;3.00;99.90;;;;;;5028190;28;20373;-70
2021/12/19 04:19:53;;;;;;;13.60;7.00;;;3.00;99.90;;;;;;5029410;28;20500;-70
2021/12/19 04:22:20;;;;;;;14.15;7.28;;;3.00;99.90;;;;;;5028937;28;20042;-69
2021/12/19 04:24:47;;;;;;;14.82;6.35;;;3.10;99.90;;;;;;5029832;28;20420;-70
2021/12/19 04:27:15;;;;;;;13.80;6.18;;;3.00;99.90;;;;;;5029773;28;20561;-70
2021/12/19 04:29:42;;;;;;;13.20;6.82;;;3.10;99.90;;;;;;5028419;28;20052;-68
2021/12/19 04:32:11;;;;;;;13.38;7.35;;;3.20;99.90;;;;;;5030195;28;20124;-69
2021/12/19 04:34:38;;;;;;;13.63;6.90;;;3.10;99.90;;;;;;5029296;28;20449;-68
2021/12/19 04:37:30;;;;;;;14.88;6.97;;;3.10;99.90;;;;;;5029965;28;20107;-69
2021/12/19 04:40:05;;;;;;;16.38;7.20;;;3.10;99.90;;;;;;5028384;28;20484;-69
2021/12/19 05:06:21;;;;;;;12.13;6.40;;;3.10;99.90;;;;;;5023528;28;20037;-69
2021/12/19 05:14:06;;;;;;;12.65;6.97;;;3.10;99.90;;;;;;5020065;28;20045;-69
2021/12/19 05:14:47;;;;;;;13.00;6.07;;;3.10;99.90;;;;;;5028676;28;20053;-69
2021/12/19 05:17:20;;;;;;;11.90;6.25;;;3.10;99.90;;;;;;5027268;28;20048;-69
2021/12/19 05:20:03;;;;;;;14.40;6.80;;;3.10;99.90;;;;;;5016596;28;20060;-69
2021/12/19 05:22:35;;;;;;;10.77;6.65;;;3.20;99.90;;;;;;5025540;28;20061;-70
2021/12/19 05:25:14;;;;;;;10.57;6.20;;;3.20;99.90;;;;;;5027439;28;20045;-69
2021/12/19 05:27:46;;;;;;;11.65;6.38;;;3.20;99.90;;;;;;5028685;28;20083;-69
2021/12/19 05:30:14;;;;;;;11.02;6.28;;;3.20;99.90;;;;;;5017936;28;20037;-68
2021/12/19 05:32:45;;;;;;;10.80;6.68;;;3.20;99.90;;;;;;5028813;28;20041;-69
2021/12/19 05:35:20;;;;;;;12.85;6.50;;;3.20;99.90;;;;;;5027528;28;20046;-69
2021/12/19 05:46:06;;;;;;;10.85;6.18;;;3.10;99.90;;;;;;5028258;28;20056;-69
2021/12/19 05:48:33;;;;;;;12.32;6.72;;;3.10;99.90;;;;;;5029030;28;20045;-69
2021/12/19 05:51:01;;;;;;;12.30;6.28;;;3.10;99.90;;;;;;5026880;28;20710;-69
2021/12/19 05:53:28;;;;;;;10.23;6.03;;;3.10;99.90;;;;;;5027571;28;20404;-69
2021/12/19 05:55:56;;;;;;;10.20;6.00;;;3.10;99.90;;;;;;5025531;28;20099;-70
2021/12/19 05:58:23;;;;;;;10.35;6.07;;;3.10;99.90;;;;;;5033077;28;20507;-70
2021/12/19 06:00:50;;;;;;;10.80;6.50;;;3.10;99.90;;;;;;5027559;28;20048;-69
2021/12/19 06:03:17;;;;;;;11.93;6.50;;;3.10;99.90;;;;;;5028599;28;20107;-69
2021/12/19 06:05:45;;;;;;;9.98;6.10;;;3.00;99.90;;;;;;5027307;28;20084;-70
2021/12/19 06:08:12;;;;;;;11.02;6.80;;;3.10;99.90;;;;;;5056656;28;20064;-69
2021/12/19 06:10:39;;;;;;;12.90;7.93;;;3.00;99.90;;;;;;5021508;28;20048;-69
2021/12/19 06:13:07;;;;;;;14.38;8.23;;;3.00;99.90;;;;;;5007975;28;20126;-70
2021/12/19 06:15:36;;;;;;;12.80;7.75;;;3.10;99.90;;;;;;5059120;28;20068;-70
2021/12/19 06:18:04;;;;;;;10.77;6.18;;;3.10;99.90;;;;;;5027292;28;20120;-69
2021/12/19 06:20:31;;;;;;;12.75;7.60;;;3.10;99.90;;;;;;5027999;28;20045;-69
2021/12/19 06:23:00;;;;;;;12.10;7.43;;;3.00;99.90;;;;;;5027004;28;20608;-69
2021/12/19 06:25:28;;;;;;;12.73;7.80;;;3.00;99.90;;;;;;5027271;28;20496;-69
2021/12/19 06:27:55;;;;;;;10.85;7.25;;;3.10;99.90;;;;;;5028610;28;20041;-69
2021/12/19 06:30:23;;;;;;;10.90;6.78;;;3.10;99.90;;;;;;5027850;28;20389;-69
2021/12/19 06:32:50;;;;;;;12.38;7.65;;;3.00;99.90;;;;;;5053449;28;20436;-69
2021/12/19 06:35:18;;;;;;;11.07;6.97;;;3.00;99.90;;;;;;5026061;28;20510;-69
2021/12/19 06:37:47;;;;;;;12.52;7.57;;;3.00;99.90;;;;;;5026333;28;20037;-70
2021/12/19 06:40:19;;;;;;;10.73;7.25;;;3.00;99.90;;;;;;5029352;28;20041;-69
2021/12/19 06:42:47;;;;;;;13.05;7.68;;;3.00;99.90;;;;;;5030783;28;20042;-69
2021/12/19 06:45:17;;;;;;;12.55;8.13;;;3.00;99.90;;;;;;5028483;28;20582;-69
2021/12/19 06:47:45;;;;;;;11.18;7.70;;;3.00;99.90;;;;;;5029729;28;20042;-70
2021/12/19 06:50:15;;;;;;;12.30;8.15;;;3.10;99.90;;;;;;5030965;28;20053;-69
2021/12/19 06:52:44;;;;;;;12.60;7.53;;;3.00;99.90;;;;;;5031164;28;20124;-70
2021/12/19 06:55:12;;;;;;;12.10;7.82;;;3.00;99.90;;;;;;5031772;28;20053;-69
2021/12/19 06:57:40;;;;;;;14.00;8.55;;;3.00;99.90;;;;;;5029250;28;20054;-69
2021/12/19 07:00:18;;;;;;;12.55;8.30;;;3.00;99.90;;;;;;5031180;28;20077;-69
2021/12/19 07:02:47;;;;;;;16.67;9.98;;;3.00;99.90;;;;;;5031667;28;20523;-69
2021/12/19 07:05:15;;;;;;;13.23;7.97;;;3.00;99.90;;;;;;5030134;28;20049;-69
2021/12/19 07:07:43;;;;;;;14.27;7.72;;;3.00;99.90;;;;;;5030618;28;20053;-69
2021/12/19 07:10:10;;;;;;;12.63;8.63;;;2.90;99.90;;;;;;5030571;28;20091;-69
2021/12/19 07:12:39;;;;;;;12.43;8.18;;;3.00;99.90;;;;;;5031887;28;20163;-69
2021/12/19 07:15:07;;;;;;;13.50;8.98;;;2.90;99.90;;;;;;5030316;28;20041;-68
2021/12/19 07:17:34;;;;;;;10.82;7.30;;;2.90;99.90;;;;;;5029747;28;20045;-68
2021/12/19 07:20:04;;;;;;;14.25;9.05;;;2.90;99.90;;;;;;5030371;28;20055;-70
2021/12/19 07:22:31;;;;;;;13.48;9.07;;;2.90;99.90;;;;;;5030607;28;20053;-69
2021/12/19 07:24:59;;;;;;;11.68;7.82;;;2.90;99.90;;;;;;5030231;28;20060;-69
2021/12/19 07:27:26;;;;;;;13.07;8.65;;;3.00;99.90;;;;;;5030997;28;20050;-68
2021/12/19 07:29:56;;;;;;;11.60;7.63;;;2.90;99.90;;;;;;5013584;28;20440;-68
2021/12/19 07:32:25;;;;;;;15.23;9.38;;;2.90;99.90;;;;;;5055497;28;20096;-69
2021/12/19 07:35:13;;;;;;;15.73;9.05;;;2.90;99.90;;;;;;5019184;28;20037;-69
2021/12/19 07:37:41;;;;;;;11.70;7.95;;;3.00;99.90;;;;;;5027750;28;20111;-69
2021/12/19 07:40:11;;;;;;;12.98;8.07;;;3.10;99.90;;;;;;5045966;28;20042;-69
2021/12/19 07:42:39;;;;;;;14.90;9.55;;;3.10;99.90;;;;;;5026932;28;20527;-69
2021/12/19 07:45:12;;;;;;;14.57;9.50;;;3.00;99.90;;;;;;5026793;28;20484;-69
2021/12/19 07:47:39;;;;;;;13.82;8.85;;;3.00;99.90;;;;;;5029716;28;20444;-69
2021/12/19 07:50:09;;;;;;;13.95;8.80;;;3.10;99.90;;;;;;5028247;28;20088;-68
2021/12/19 07:52:36;;;;;;;16.38;9.25;;;3.10;99.90;;;;;;5021107;28;20045;-70
2021/12/19 07:55:05;;;;;;;17.15;9.55;;;3.10;99.90;;;;;;5037795;28;20127;-69
2021/12/19 07:57:33;;;;;;;16.90;10.60;;;3.10;99.90;;;;;;5033132;28;20044;-69
2021/12/19 08:00:01;;;;;;;15.63;9.52;;;3.10;99.90;;;;;;5027407;28;20060;-69
2021/12/19 08:02:39;;;;;;;14.75;9.38;;;3.10;99.90;;;;;;5029560;28;20045;-70
2021/12/19 08:05:07;;;;;;;14.48;8.90;;;3.20;99.90;;;;;;5027443;28;20095;-69
2021/12/19 08:07:35;;;;;;;15.20;9.70;;;3.10;99.90;;;;;;5028907;28;20041;-70
2021/12/19 08:12:36;;;;;;;16.48;9.02;;;3.10;99.90;;;;;;5027227;28;20045;-70
2021/12/19 08:15:05;;;;;;;15.73;10.73;;;3.20;99.90;;;;;;5029125;28;20091;-69
2021/12/19 08:17:32;;;;;;;16.65;9.93;;;3.20;99.90;;;;;;5025347;28;20339;-70
2021/12/19 08:20:01;;;;;;;17.52;10.80;;;3.20;99.90;;;;;;5028724;28;20046;-69
2021/12/19 08:22:29;;;;;;;17.42;11.10;;;3.30;99.90;;;;;;5027948;28;20041;-70
2021/12/19 08:24:57;;;;;;;15.65;9.88;;;3.30;99.90;;;;;;5028376;28;20103;-68
2021/12/19 08:27:26;;;;;;;16.13;10.10;;;3.30;99.90;;;;;;5028918;28;20095;-70
2021/12/19 08:29:55;;;;;;;17.65;10.32;;;3.30;99.90;;;;;;5019667;28;20052;-69
2021/12/19 08:32:23;;;;;;;16.95;10.65;;;3.30;99.90;;;;;;5028093;28;20045;-70
2021/12/19 08:34:50;;;;;;;18.27;10.75;;;3.30;99.90;;;;;;5028753;28;20037;-69
2021/12/19 08:37:19;;;;;;;20.55;11.68;;;3.30;99.90;;;;;;5030244;28;20474;-69
2021/12/19 08:39:46;;;;;;;18.98;11.57;;;3.30;99.90;;;;;;5029830;28;20049;-70
2021/12/19 08:42:14;;;;;;;19.35;11.40;;;3.40;99.90;;;;;;5030223;28;20050;-70
2021/12/19 08:44:42;;;;;;;18.48;11.00;;;3.40;99.90;;;;;;5028859;28;20057;-69
2021/12/19 08:47:09;;;;;;;20.63;11.77;;;3.40;99.90;;;;;;5028796;28;20404;-69
2021/12/19 08:49:37;;;;;;;22.73;12.30;;;3.40;99.90;;;;;;5029786;28;20203;-68
2021/12/19 08:52:04;;;;;;;20.38;11.23;;;3.50;99.90;;;;;;5029885;28;20459;-70
2021/12/19 08:54:32;;;;;;;18.88;11.15;;;3.50;99.90;;;;;;5028288;28;20065;-70
2021/12/19 08:56:59;;;;;;;20.52;12.50;;;3.50;99.90;;;;;;5028677;28;20049;-69
2021/12/19 08:59:29;;;;;;;21.73;12.38;;;3.50;99.90;;;;;;5032498;28;20037;-68
2021/12/19 09:02:00;;;;;;;19.75;11.55;;;3.50;99.90;;;;;;5027022;28;20045;-69
2021/12/19 09:04:28;;;;;;;19.37;11.60;;;3.50;99.90;;;;;;5025842;28;20493;-70
2021/12/19 09:06:58;;;;;;;20.38;11.98;;;3.60;99.90;;;;;;5024079;28;20095;-69
2021/12/19 09:09:25;;;;;;;22.33;13.05;;;3.60;99.90;;;;;;5029549;28;20065;-69
2021/12/19 09:11:53;;;;;;;24.25;12.65;;;3.60;99.90;;;;;;5029261;28;20503;-69
2021/12/19 09:14:20;;;;;;;24.98;13.60;;;3.50;99.90;;;;;;5029513;28;20444;-69
2021/12/19 09:16:48;;;;;;;21.50;12.65;;;3.60;99.90;;;;;;5028768;28;20049;-69
2021/12/19 09:19:16;;;;;;;23.30;13.50;;;3.60;99.90;;;;;;5028985;28;20049;-68
2021/12/19 09:21:43;;;;;;;24.13;13.27;;;3.60;99.90;;;;;;5027804;28;20052;-69
2021/12/19 09:24:10;;;;;;;23.55;13.90;;;3.60;99.90;;;;;;5022373;28;20087;-68
2021/12/19 09:26:40;;;;;;;23.90;14.13;;;3.60;99.90;;;;;;5020646;28;20045;-69
2021/12/19 09:29:08;;;;;;;25.42;14.18;;;3.60;99.90;;;;;;5029395;28;20099;-69
2021/12/19 09:31:35;;;;;;;29.95;16.75;;;3.60;99.90;;;;;;5027405;28;20053;-69
2021/12/19 09:34:03;;;;;;;27.15;14.45;;;3.70;99.90;;;;;;5030791;28;20046;-68
2021/12/19 09:36:31;;;;;;;27.45;15.95;;;3.70;99.90;;;;;;5030382;28;20051;-69
2021/12/19 09:38:58;;;;;;;26.33;14.63;;;3.70;99.90;;;;;;5029243;28;20459;-69
2021/12/19 09:41:32;;;;;;;24.75;15.38;;;3.70;99.90;;;;;;5028793;28;20441;-68
2021/12/19 09:44:02;;;;;;;28.02;16.23;;;3.70;99.90;;;;;;5028954;28;20041;-70
2021/12/19 09:46:33;;;;;;;29.42;16.23;;;3.70;99.90;;;;;;5028952;28;20516;-69
2021/12/19 09:49:03;;;;;;;23.83;14.25;;;3.70;99.90;;;;;;5029112;28;20033;-70
2021/12/19 09:51:31;;;;;;;27.17;15.63;;;3.60;99.90;;;;;;5029158;28;20049;-67
2021/12/19 09:53:58;;;;;;;27.00;15.93;;;3.70;99.90;;;;;;5029057;28;20034;-69
2021/12/19 09:56:27;;;;;;;26.20;15.65;;;3.60;99.90;;;;;;5028998;28;20045;-69
2021/12/19 09:58:54;;;;;;;26.73;16.25;;;3.70;99.90;;;;;;5029417;28;20614;-69
2021/12/19 10:01:21;;;;;;;27.33;15.98;;;3.70;99.90;;;;;;5025209;28;20045;-69
2021/12/19 10:03:48;;;;;;;27.83;16.30;;;3.70;99.90;;;;;;5026570;28;20053;-68
2021/12/19 10:06:22;;;;;;;28.50;16.23;;;3.70;99.90;;;;;;5027753;28;20068;-69
2021/12/19 10:09:08;;;;;;;26.33;16.02;;;3.70;99.90;;;;;;5025797;28;20377;-69
2021/12/19 10:14:46;;;;;;;29.77;17.27;;;3.80;99.90;;;;;;5027632;28;20818;-69
2021/12/19 10:17:18;;;;;;;26.67;16.05;;;3.80;99.90;;;;;;5022986;28;20463;-69
2021/12/19 10:19:49;;;;;;;22.75;14.27;;;3.80;99.90;;;;;;5021798;28;20161;-69
2021/12/19 10:22:28;;;;;;;21.52;13.13;;;3.70;99.90;;;;;;5033125;28;20052;-68
2021/12/19 10:24:58;;;;;;;24.40;14.35;;;3.70;99.90;;;;;;5019699;28;20045;-69
2021/12/19 10:27:37;;;;;;;29.05;16.27;;;3.70;99.90;;;;;;5025106;28;20049;-68
2021/12/19 10:30:18;;;;;;;25.33;15.55;;;3.70;99.90;;;;;;5018002;28;20041;-68
2021/12/19 10:33:06;;;;;;;23.95;14.13;;;3.70;99.90;;;;;;5028759;28;20045;-69
2021/12/19 10:35:39;;;;;;;24.38;14.13;;;3.70;99.90;;;;;;5029938;28;20118;-69
2021/12/19 10:38:22;;;;;;;25.23;15.13;;;3.70;99.90;;;;;;5030049;28;20045;-68
2021/12/19 10:40:54;;;;;;;25.17;15.52;;;3.70;99.90;;;;;;5027108;28;20453;-69
2021/12/19 10:43:27;;;;;;;23.10;14.65;;;3.80;99.90;;;;;;5021487;28;20041;-68
2021/12/19 10:45:55;;;;;;;;;;;3.80;99.90;;;;;;5030361;28;20052;-68
2021/12/19 10:48:38;;;;;;;26.48;15.38;;;3.70;99.90;;;;;;5028311;28;19925;-68
2021/12/19 10:51:18;;;;;;;24.73;14.35;;;3.70;99.90;;;;;;5028538;28;20072;-68
2021/12/19 10:53:49;;;;;;;24.00;14.45;;;3.70;99.90;;;;;;5022100;28;20053;-69
2021/12/19 10:56:24;;;;;;;25.15;14.43;;;3.70;99.90;;;;;;5020475;28;20501;-69
2021/12/19 10:58:57;;;;;;;24.15;14.40;;;3.60;99.90;;;;;;5029926;28;20050;-69
2021/12/19 11:01:39;;;;;;;24.52;14.80;;;3.70;99.90;;;;;;5011584;28;20072;-69
2021/12/19 11:04:11;;;;;;;24.70;15.00;;;3.70;99.90;;;;;;5027667;28;20057;-69
2021/12/19 11:06:46;;;;;;;25.65;15.30;;;3.70;99.90;;;;;;5029520;28;20068;-69
2021/12/19 11:09:19;;;;;;;27.63;16.35;;;3.60;99.90;;;;;;5029475;28;20496;-68
2021/12/19 11:11:56;;;;;;;27.13;15.57;;;3.70;99.90;;;;;;5029081;28;20049;-68
2021/12/19 11:14:47;;;;;;;25.83;15.57;;;3.70;99.90;;;;;;5022279;28;20049;-68
2021/12/19 11:17:21;;;;;;;25.40;15.05;;;3.70;99.90;;;;;;5027987;28;20160;-68
2021/12/19 11:19:50;;;;;;;28.33;16.48;;;3.60;99.90;;;;;;5026806;28;20104;-69
2021/12/19 11:22:24;;;;;;;26.17;15.75;;;3.70;99.90;;;;;;5028329;28;20046;-68
2021/12/19 11:24:56;;;;;;;26.13;15.93;;;3.70;99.90;;;;;;5025421;28;20052;-69
2021/12/19 11:27:25;;;;;;;24.50;15.88;;;3.70;99.90;;;;;;5026690;28;20060;-69
2021/12/19 11:29:54;;;;;;;22.63;14.35;;;3.70;99.90;;;;;;5028731;28;20045;-69
2021/12/19 11:32:31;;;;;;;26.77;16.45;;;3.70;99.90;;;;;;5027354;28;20048;-69
2021/12/19 11:35:01;;;;;;;28.27;15.70;;;3.70;99.90;;;;;;5027950;28;20048;-69
2021/12/19 11:37:42;;;;;;;26.58;15.55;;;3.60;99.90;;;;;;5028595;28;20136;-69
2021/12/19 11:40:16;;;;;;;23.33;13.73;;;3.70;99.90;;;;;;5026271;28;20060;-69
2021/12/19 11:42:43;;;;;;;25.15;14.48;;;3.70;99.90;;;;;;5027167;28;20148;-68
2021/12/19 11:46:01;;;;;;;24.50;15.07;;;3.80;99.90;;;;;;5029162;28;20049;-68
2021/12/19 11:48:22;;;;;;;25.65;14.30;;;3.70;99.90;;;;;;5023280;28;20069;-68
2021/12/19 11:50:55;;;;;;;24.10;13.75;;;3.70;99.90;;;;;;5031852;28;20038;-68
2021/12/19 11:53:26;;;;;;;23.95;14.77;;;3.70;99.90;;;;;;5026556;28;20056;-68
2021/12/19 11:56:09;;;;;;;23.67;13.82;;;3.60;99.90;;;;;;5017376;28;20132;-69
2021/12/19 11:58:55;;;;;;;24.70;12.63;;;3.60;99.90;;;;;;5034808;28;20049;-69
2021/12/19 12:01:28;;;;;;;21.95;12.38;;;3.70;99.90;;;;;;5027965;28;20511;-68
2021/12/19 12:04:03;;;;;;;23.17;12.55;;;3.70;99.90;;;;;;5029987;28;20153;-68
2021/12/19 12:06:36;;;;;;;23.75;13.50;;;3.70;99.90;;;;;;5030588;28;20393;-69
2021/12/19 12:09:10;;;;;;;24.40;13.95;;;3.70;99.90;;;;;;5027710;28;20046;-69
2021/12/19 12:12:09;;;;;;;22.52;13.60;;;3.70;99.90;;;;;;5030880;28;20041;-69
2021/12/19 12:14:43;;;;;;;25.00;14.10;;;3.70;99.90;;;;;;5028536;28;20472;-68
2021/12/19 12:17:21;;;;;;;21.83;11.80;;;3.80;99.90;;;;;;5030069;28;20045;-68
2021/12/19 12:19:51;;;;;;;24.25;13.23;;;3.70;99.90;;;;;;5030252;28;20394;-69
2021/12/19 12:25:27;;;;;;;23.52;12.82;;;3.70;99.90;;;;;;5019459;28;19979;-69
2021/12/19 12:28:03;;;;;;;25.02;14.15;;;3.70;99.90;;;;;;5027985;28;20095;-68
2021/12/19 12:30:45;;;;;;;24.02;13.27;;;3.70;99.90;;;;;;5030388;28;20061;-69
2021/12/19 12:33:15;;;;;;;26.85;14.32;;;3.70;99.90;;;;;;5030028;28;20439;-69
2021/12/19 12:35:48;;;;;;;23.55;14.35;;;3.70;99.90;;;;;;5029617;28;20115;-68
2021/12/19 12:38:18;;;;;;;22.23;13.75;;;3.70;99.90;;;;;;5028092;28;20045;-69
2021/12/19 12:41:06;;;;;;;23.23;13.13;;;3.70;99.90;;;;;;5029604;28;20057;-69
2021/12/19 12:43:43;;;;;;;23.08;13.45;;;3.70;99.90;;;;;;5039926;28;20691;-69
2021/12/19 12:46:18;;;;;;;24.95;13.60;;;3.70;99.90;;;;;;5024370;28;20053;-68
2021/12/19 12:49:00;;;;;;;25.23;13.63;;;3.60;99.90;;;;;;5030274;28;20052;-68
2021/12/19 12:51:39;;;;;;;24.83;13.77;;;3.70;99.90;;;;;;5025702;28;20099;-69
2021/12/19 12:54:14;;;;;;;23.48;13.57;;;3.70;99.90;;;;;;5022801;28;20065;-69
2021/12/19 12:56:46;;;;;;;23.23;13.35;;;3.70;99.90;;;;;;5029246;28;20056;-68
2021/12/19 12:59:19;;;;;;;20.92;12.00;;;3.70;99.90;;;;;;5032965;28;20102;-70
2021/12/19 13:02:08;;;;;;;23.15;13.35;;;3.80;99.90;;;;;;5029791;28;20045;-68
2021/12/19 13:04:37;;;;;;;24.70;12.98;;;3.70;99.90;;;;;;5029753;28;20057;-69
2021/12/19 13:07:24;;;;;;;25.65;14.13;;;3.70;99.90;;;;;;5028347;28;20046;-68
2021/12/19 13:09:57;;;;;;;24.77;13.48;;;3.70;99.90;;;;;;5021162;28;20041;-68
2021/12/19 13:12:25;;;;;;;26.58;13.77;;;3.70;99.90;;;;;;5028826;28;20049;-69
2021/12/19 13:14:59;;;;;;;23.17;13.60;;;3.70;99.90;;;;;;5029006;28;20447;-68
2021/12/19 13:17:33;;;;;;;26.23;13.80;;;3.70;99.90;;;;;;5028958;28;20400;-68
2021/12/19 13:20:25;;;;;;;27.45;14.55;;;3.80;99.90;;;;;;5028952;28;20042;-68
2021/12/19 13:22:53;;;;;;;;;;;3.80;99.90;;;;;;5030386;28;20049;-68
2021/12/19 13:25:37;;;;;;;27.05;14.02;;;3.80;99.90;;;;;;5027753;28;19940;-68
2021/12/19 13:28:07;;;;;;;23.73;13.65;;;3.80;99.90;;;;;;5029707;28;20042;-71
2021/12/19 13:30:36;;;;;;;27.38;13.80;;;3.80;99.90;;;;;;5020976;28;20856;-69
2021/12/19 13:33:09;;;;;;;29.45;15.23;;;3.80;99.90;;;;;;5025824;28;20044;-69
2021/12/19 13:35:51;;;;;;;29.25;14.38;;;3.80;99.90;;;;;;5029249;28;20511;-69
2021/12/19 13:38:18;;;;;;;;;;;3.70;99.90;;;;;;5029441;28;20380;-69
2021/12/19 13:40:55;;;;;;;26.95;14.65;;;3.70;99.90;;;;;;5028347;28;19921;-69
2021/12/19 13:43:24;;;;;;;27.50;14.50;;;3.70;99.90;;;;;;5029256;28;20037;-69
2021/12/19 13:46:05;;;;;;;27.60;14.57;;;3.70;99.90;;;;;;5029155;28;20059;-69
2021/12/19 13:48:35;;;;;;;27.50;14.90;;;3.70;99.90;;;;;;5030490;28;20037;-70
2021/12/19 13:51:07;;;;;;;28.05;14.80;;;3.80;99.90;;;;;;5036355;28;20387;-68
2021/12/19 13:53:37;;;;;;;33.78;16.00;;;3.80;99.90;;;;;;5029156;28;20049;-68
2021/12/19 13:56:08;;;;;;;28.02;16.10;;;3.80;99.90;;;;;;5027915;28;20052;-69
2021/12/19 13:58:42;;;;;;;30.08;15.18;;;3.80;99.90;;;;;;5030823;28;20056;-69
2021/12/19 14:01:38;;;;;;;29.40;14.13;;;3.70;99.90;;;;;;5026560;28;20038;-68
2021/12/19 14:04:19;;;;;;;30.67;16.08;;;3.80;99.90;;;;;;5027982;28;20060;-68
2021/12/19 14:06:49;;;;;;;30.70;15.00;;;3.80;99.90;;;;;;5027096;28;20053;-68
2021/12/19 14:09:21;;;;;;;30.75;16.15;;;3.70;99.90;;;;;;5025906;28;20308;-68